sensor_id;sensor_type;location;lat;lon;timestamp;P1;durP1;ratioP1;P2;durP2;ratioP2
15451;SDS011;7827;53.594;9.938;2022-09-17T00:01:38;31.05;;;5.72;;
15451;SDS011;7827;53.594;9.938;2022-09-17T00:04:06;30.08;;;5.00;;
15451;SDS011;7827;53.594;9.938;2022-09-17T00:06:36;21.25;;;4.80;;
15451;SDS011;7827;53.594;9.938;2022-09-17T00:09:04;29.73;;;5.20;;
15451;SDS011;7827;53.594;9.938;2022-09-17T00:11:35;25.70;;;4.90;;
15451;SDS011;7827;53.594;9.938;2022-09-17T00:14:08;26.52;;;5.35;;
15451;SDS011;7827;53.594;9.938;2022-09-17T00:16:41;27.15;;;4.53;;
15451;SDS011;7827;53.594;9.938;2022-09-17T00:19:13;30.90;;;4.97;;
15451;SDS011;7827;53.594;9.938;2022-09-17T00:21:43;33.33;;;5.20;;
15451;SDS011;7827;53.594;9.938;2022-09-17T00:24:13;21.73;;;4.53;;
15451;SDS011;7827;53.594;9.938;2022-09-17T00:26:42;32.72;;;5.18;;
15451;SDS011;7827;53.594;9.938;2022-09-17T00:29:14;27.33;;;4.22;;
15451;SDS011;7827;53.594;9.938;2022-09-17T00:31:42;29.95;;;5.28;;
15451;SDS011;7827;53.594;9.938;2022-09-17T00:34:11;29.15;;;4.95;;
15451;SDS011;7827;53.594;9.938;2022-09-17T00:36:39;31.23;;;4.40;;
15451;SDS011;7827;53.594;9.938;2022-09-17T00:39:08;26.23;;;5.72;;
15451;SDS011;7827;53.594;9.938;2022-09-17T00:41:41;22.05;;;3.95;;
15451;SDS011;7827;53.594;9.938;2022-09-17T00:47:18;33.30;;;5.45;;
15451;SDS011;7827;53.594;9.938;2022-09-17T00:49:53;32.83;;;4.75;;
15451;SDS011;7827;53.594;9.938;2022-09-17T00:52:26;23.10;;;4.68;;
15451;SDS011;7827;53.594;9.938;2022-09-17T00:55:03;21.33;;;4.40;;
15451;SDS011;7827;53.594;9.938;2022-09-17T00:57:39;21.60;;;4.32;;
15451;SDS011;7827;53.594;9.938;2022-09-17T01:00:11;21.02;;;3.97;;
15451;SDS011;7827;53.594;9.938;2022-09-17T01:02:42;25.80;;;3.95;;
15451;SDS011;7827;53.594;9.938;2022-09-17T01:05:11;22.80;;;4.38;;
15451;SDS011;7827;53.594;9.938;2022-09-17T01:07:52;16.63;;;4.03;;
15451;SDS011;7827;53.594;9.938;2022-09-17T01:10:38;26.23;;;4.63;;
15451;SDS011;7827;53.594;9.938;2022-09-17T01:13:42;19.15;;;3.75;;
15451;SDS011;7827;53.594;9.938;2022-09-17T01:16:28;23.13;;;4.13;;
15451;SDS011;7827;53.594;9.938;2022-09-17T01:19:13;23.33;;;4.30;;
15451;SDS011;7827;53.594;9.938;2022-09-17T01:22:11;25.42;;;4.55;;
15451;SDS011;7827;53.594;9.938;2022-09-17T01:24:49;17.83;;;3.58;;
15451;SDS011;7827;53.594;9.938;2022-09-17T01:28:01;20.25;;;4.75;;
15451;SDS011;7827;53.594;9.938;2022-09-17T01:31:03;17.90;;;4.00;;
15451;SDS011;7827;53.594;9.938;2022-09-17T01:33:50;18.92;;;4.15;;
15451;SDS011;7827;53.594;9.938;2022-09-17T01:36:52;19.70;;;3.70;;
15451;SDS011;7827;53.594;9.938;2022-09-17T01:39:33;23.83;;;3.80;;
15451;SDS011;7827;53.594;9.938;2022-09-17T01:42:14;22.80;;;4.55;;
15451;SDS011;7827;53.594;9.938;2022-09-17T01:44:52;23.02;;;4.03;;
15451;SDS011;7827;53.594;9.938;2022-09-17T01:47:33;23.25;;;4.10;;
15451;SDS011;7827;53.594;9.938;2022-09-17T01:50:06;23.05;;;4.20;;
15451;SDS011;7827;53.594;9.938;2022-09-17T01:52:39;20.70;;;4.75;;
15451;SDS011;7827;53.594;9.938;2022-09-17T01:55:14;22.50;;;4.22;;
15451;SDS011;7827;53.594;9.938;2022-09-17T01:57:46;23.77;;;3.97;;
15451;SDS011;7827;53.594;9.938;2022-09-17T02:00:21;21.30;;;4.28;;
15451;SDS011;7827;53.594;9.938;2022-09-17T02:02:52;26.38;;;4.30;;
15451;SDS011;7827;53.594;9.938;2022-09-17T02:05:29;25.92;;;4.65;;
15451;SDS011;7827;53.594;9.938;2022-09-17T02:08:07;27.15;;;4.63;;
15451;SDS011;7827;53.594;9.938;2022-09-17T02:10:43;25.45;;;4.32;;
15451;SDS011;7827;53.594;9.938;2022-09-17T02:13:16;20.65;;;4.15;;
15451;SDS011;7827;53.594;9.938;2022-09-17T02:15:50;21.20;;;4.03;;
15451;SDS011;7827;53.594;9.938;2022-09-17T02:18:27;18.08;;;3.67;;
15451;SDS011;7827;53.594;9.938;2022-09-17T02:21:05;28.17;;;4.40;;
15451;SDS011;7827;53.594;9.938;2022-09-17T02:23:40;17.35;;;4.03;;
15451;SDS011;7827;53.594;9.938;2022-09-17T02:26:17;20.05;;;4.22;;
15451;SDS011;7827;53.594;9.938;2022-09-17T02:28:48;21.25;;;4.10;;
15451;SDS011;7827;53.594;9.938;2022-09-17T02:31:23;17.90;;;3.80;;
15451;SDS011;7827;53.594;9.938;2022-09-17T02:33:53;20.70;;;4.55;;
15451;SDS011;7827;53.594;9.938;2022-09-17T02:36:28;20.23;;;3.28;;
15451;SDS011;7827;53.594;9.938;2022-09-17T02:39:01;17.15;;;3.95;;
15451;SDS011;7827;53.594;9.938;2022-09-17T02:41:34;24.23;;;3.85;;
15451;SDS011;7827;53.594;9.938;2022-09-17T02:44:16;22.33;;;4.35;;
15451;SDS011;7827;53.594;9.938;2022-09-17T02:47:01;19.73;;;4.05;;
15451;SDS011;7827;53.594;9.938;2022-09-17T02:53:04;20.33;;;3.53;;
15451;SDS011;7827;53.594;9.938;2022-09-17T02:55:54;15.90;;;3.50;;
15451;SDS011;7827;53.594;9.938;2022-09-17T02:58:37;16.92;;;4.60;;
15451;SDS011;7827;53.594;9.938;2022-09-17T03:01:13;18.73;;;3.58;;
15451;SDS011;7827;53.594;9.938;2022-09-17T03:03:50;18.05;;;4.85;;
15451;SDS011;7827;53.594;9.938;2022-09-17T03:06:23;15.15;;;3.97;;
15451;SDS011;7827;53.594;9.938;2022-09-17T03:08:51;23.83;;;5.28;;
15451;SDS011;7827;53.594;9.938;2022-09-17T03:11:22;21.58;;;3.72;;
15451;SDS011;7827;53.594;9.938;2022-09-17T03:13:50;14.98;;;3.08;;
15451;SDS011;7827;53.594;9.938;2022-09-17T03:16:18;19.85;;;3.53;;
15451;SDS011;7827;53.594;9.938;2022-09-17T03:18:46;17.55;;;3.75;;
15451;SDS011;7827;53.594;9.938;2022-09-17T03:21:14;16.33;;;3.33;;
15451;SDS011;7827;53.594;9.938;2022-09-17T03:23:44;18.90;;;3.38;;
15451;SDS011;7827;53.594;9.938;2022-09-17T03:26:13;20.75;;;3.55;;
15451;SDS011;7827;53.594;9.938;2022-09-17T03:28:41;16.40;;;3.40;;
15451;SDS011;7827;53.594;9.938;2022-09-17T03:31:10;17.23;;;3.38;;
15451;SDS011;7827;53.594;9.938;2022-09-17T03:33:39;18.67;;;3.65;;
15451;SDS011;7827;53.594;9.938;2022-09-17T03:36:07;19.02;;;3.40;;
15451;SDS011;7827;53.594;9.938;2022-09-17T03:38:35;12.05;;;2.83;;
15451;SDS011;7827;53.594;9.938;2022-09-17T03:41:05;11.85;;;2.85;;
15451;SDS011;7827;53.594;9.938;2022-09-17T03:43:33;15.23;;;3.13;;
15451;SDS011;7827;53.594;9.938;2022-09-17T03:46:02;15.90;;;3.20;;
15451;SDS011;7827;53.594;9.938;2022-09-17T03:48:30;17.17;;;3.20;;
15451;SDS011;7827;53.594;9.938;2022-09-17T03:51:02;19.38;;;4.13;;
15451;SDS011;7827;53.594;9.938;2022-09-17T03:53:31;16.52;;;3.38;;
15451;SDS011;7827;53.594;9.938;2022-09-17T03:55:59;16.80;;;3.53;;
15451;SDS011;7827;53.594;9.938;2022-09-17T03:58:32;13.45;;;3.17;;
15451;SDS011;7827;53.594;9.938;2022-09-17T04:01:01;13.25;;;2.97;;
15451;SDS011;7827;53.594;9.938;2022-09-17T04:03:30;12.02;;;2.80;;
15451;SDS011;7827;53.594;9.938;2022-09-17T04:05:59;17.40;;;3.13;;
15451;SDS011;7827;53.594;9.938;2022-09-17T04:08:27;14.23;;;3.70;;
15451;SDS011;7827;53.594;9.938;2022-09-17T04:10:55;16.20;;;3.28;;
15451;SDS011;7827;53.594;9.938;2022-09-17T04:13:23;11.02;;;2.53;;
15451;SDS011;7827;53.594;9.938;2022-09-17T04:15:52;12.32;;;2.65;;
15451;SDS011;7827;53.594;9.938;2022-09-17T04:18:21;18.40;;;3.63;;
15451;SDS011;7827;53.594;9.938;2022-09-17T04:20:49;12.27;;;2.90;;
15451;SDS011;7827;53.594;9.938;2022-09-17T04:23:18;19.38;;;3.55;;
15451;SDS011;7827;53.594;9.938;2022-09-17T04:25:46;20.42;;;3.38;;
15451;SDS011;7827;53.594;9.938;2022-09-17T04:28:14;12.93;;;3.30;;
15451;SDS011;7827;53.594;9.938;2022-09-17T04:30:42;15.63;;;3.53;;
15451;SDS011;7827;53.594;9.938;2022-09-17T04:33:12;15.02;;;3.55;;
15451;SDS011;7827;53.594;9.938;2022-09-17T04:35:40;18.73;;;3.67;;
15451;SDS011;7827;53.594;9.938;2022-09-17T04:38:08;16.20;;;3.13;;
15451;SDS011;7827;53.594;9.938;2022-09-17T04:40:39;12.13;;;2.88;;
15451;SDS011;7827;53.594;9.938;2022-09-17T04:43:07;16.73;;;3.10;;
15451;SDS011;7827;53.594;9.938;2022-09-17T04:45:37;16.37;;;3.40;;
15451;SDS011;7827;53.594;9.938;2022-09-17T04:48:05;12.10;;;2.80;;
15451;SDS011;7827;53.594;9.938;2022-09-17T04:50:36;11.93;;;2.70;;
15451;SDS011;7827;53.594;9.938;2022-09-17T04:53:04;18.77;;;3.33;;
15451;SDS011;7827;53.594;9.938;2022-09-17T04:55:32;13.20;;;3.88;;
15451;SDS011;7827;53.594;9.938;2022-09-17T04:58:00;12.27;;;2.97;;
15451;SDS011;7827;53.594;9.938;2022-09-17T05:00:29;15.63;;;3.88;;
15451;SDS011;7827;53.594;9.938;2022-09-17T05:02:58;15.32;;;3.47;;
15451;SDS011;7827;53.594;9.938;2022-09-17T05:05:26;15.80;;;3.30;;
15451;SDS011;7827;53.594;9.938;2022-09-17T05:07:55;14.83;;;3.33;;
15451;SDS011;7827;53.594;9.938;2022-09-17T05:10:23;14.93;;;3.67;;
15451;SDS011;7827;53.594;9.938;2022-09-17T05:12:52;9.65;;;2.97;;
15451;SDS011;7827;53.594;9.938;2022-09-17T05:15:22;14.50;;;2.58;;
15451;SDS011;7827;53.594;9.938;2022-09-17T05:17:53;19.02;;;3.08;;
15451;SDS011;7827;53.594;9.938;2022-09-17T05:20:21;14.80;;;3.40;;
15451;SDS011;7827;53.594;9.938;2022-09-17T05:22:50;15.80;;;3.77;;
15451;SDS011;7827;53.594;9.938;2022-09-17T05:25:20;21.63;;;4.00;;
15451;SDS011;7827;53.594;9.938;2022-09-17T05:27:50;17.58;;;3.03;;
15451;SDS011;7827;53.594;9.938;2022-09-17T05:30:19;16.35;;;3.70;;
15451;SDS011;7827;53.594;9.938;2022-09-17T05:32:48;12.63;;;3.05;;
15451;SDS011;7827;53.594;9.938;2022-09-17T05:35:25;14.48;;;3.22;;
15451;SDS011;7827;53.594;9.938;2022-09-17T05:37:57;17.63;;;3.30;;
15451;SDS011;7827;53.594;9.938;2022-09-17T05:40:27;19.67;;;2.95;;
15451;SDS011;7827;53.594;9.938;2022-09-17T05:42:57;19.27;;;4.15;;
15451;SDS011;7827;53.594;9.938;2022-09-17T05:45:26;17.95;;;2.70;;
15451;SDS011;7827;53.594;9.938;2022-09-17T05:47:56;12.48;;;3.42;;
15451;SDS011;7827;53.594;9.938;2022-09-17T05:50:26;13.63;;;2.83;;
15451;SDS011;7827;53.594;9.938;2022-09-17T05:52:55;13.18;;;3.50;;
15451;SDS011;7827;53.594;9.938;2022-09-17T05:55:30;18.23;;;2.90;;
15451;SDS011;7827;53.594;9.938;2022-09-17T05:58:07;17.23;;;3.33;;
15451;SDS011;7827;53.594;9.938;2022-09-17T06:00:37;11.50;;;2.53;;
15451;SDS011;7827;53.594;9.938;2022-09-17T06:03:07;14.15;;;2.88;;
15451;SDS011;7827;53.594;9.938;2022-09-17T06:05:37;16.02;;;4.22;;
15451;SDS011;7827;53.594;9.938;2022-09-17T06:08:05;12.00;;;3.05;;
15451;SDS011;7827;53.594;9.938;2022-09-17T06:10:36;18.90;;;3.13;;
15451;SDS011;7827;53.594;9.938;2022-09-17T06:13:05;22.83;;;3.25;;
15451;SDS011;7827;53.594;9.938;2022-09-17T06:15:33;15.35;;;3.03;;
15451;SDS011;7827;53.594;9.938;2022-09-17T06:18:01;15.85;;;3.55;;
15451;SDS011;7827;53.594;9.938;2022-09-17T06:20:30;23.40;;;3.42;;
15451;SDS011;7827;53.594;9.938;2022-09-17T06:22:58;15.18;;;3.10;;
15451;SDS011;7827;53.594;9.938;2022-09-17T06:25:26;21.55;;;3.05;;
15451;SDS011;7827;53.594;9.938;2022-09-17T06:27:56;13.27;;;3.05;;
15451;SDS011;7827;53.594;9.938;2022-09-17T06:30:24;18.30;;;3.30;;
15451;SDS011;7827;53.594;9.938;2022-09-17T06:32:53;12.05;;;2.80;;
15451;SDS011;7827;53.594;9.938;2022-09-17T06:35:21;14.25;;;3.15;;
15451;SDS011;7827;53.594;9.938;2022-09-17T06:37:49;16.38;;;2.70;;
15451;SDS011;7827;53.594;9.938;2022-09-17T06:40:17;23.63;;;3.17;;
15451;SDS011;7827;53.594;9.938;2022-09-17T06:42:49;9.77;;;2.50;;
15451;SDS011;7827;53.594;9.938;2022-09-17T06:45:18;16.85;;;3.13;;
15451;SDS011;7827;53.594;9.938;2022-09-17T06:47:46;14.48;;;2.72;;
15451;SDS011;7827;53.594;9.938;2022-09-17T06:50:15;11.13;;;2.67;;
15451;SDS011;7827;53.594;9.938;2022-09-17T06:52:46;11.30;;;2.63;;
15451;SDS011;7827;53.594;9.938;2022-09-17T06:55:15;11.57;;;2.35;;
15451;SDS011;7827;53.594;9.938;2022-09-17T06:57:44;12.02;;;2.10;;
15451;SDS011;7827;53.594;9.938;2022-09-17T07:00:13;10.65;;;2.10;;
15451;SDS011;7827;53.594;9.938;2022-09-17T07:02:43;11.23;;;2.53;;
15451;SDS011;7827;53.594;9.938;2022-09-17T07:05:23;8.55;;;2.00;;
15451;SDS011;7827;53.594;9.938;2022-09-17T07:07:52;9.85;;;2.10;;
15451;SDS011;7827;53.594;9.938;2022-09-17T07:10:21;7.75;;;1.70;;
15451;SDS011;7827;53.594;9.938;2022-09-17T07:12:49;9.07;;;2.58;;
15451;SDS011;7827;53.594;9.938;2022-09-17T07:15:18;8.55;;;1.83;;
15451;SDS011;7827;53.594;9.938;2022-09-17T07:17:47;7.22;;;1.75;;
15451;SDS011;7827;53.594;9.938;2022-09-17T07:20:15;5.75;;;1.60;;
15451;SDS011;7827;53.594;9.938;2022-09-17T07:22:44;5.53;;;1.67;;
15451;SDS011;7827;53.594;9.938;2022-09-17T07:25:12;7.90;;;1.67;;
15451;SDS011;7827;53.594;9.938;2022-09-17T07:27:41;10.35;;;2.25;;
15451;SDS011;7827;53.594;9.938;2022-09-17T07:30:10;10.43;;;2.30;;
15451;SDS011;7827;53.594;9.938;2022-09-17T07:32:40;5.97;;;1.60;;
15451;SDS011;7827;53.594;9.938;2022-09-17T07:35:10;8.23;;;2.80;;
15451;SDS011;7827;53.594;9.938;2022-09-17T07:37:38;6.90;;;1.80;;
15451;SDS011;7827;53.594;9.938;2022-09-17T07:40:07;7.68;;;1.83;;
15451;SDS011;7827;53.594;9.938;2022-09-17T07:42:36;3.95;;;1.58;;
15451;SDS011;7827;53.594;9.938;2022-09-17T07:45:04;6.68;;;2.10;;
15451;SDS011;7827;53.594;9.938;2022-09-17T07:47:38;8.32;;;2.30;;
15451;SDS011;7827;53.594;9.938;2022-09-17T07:50:07;10.77;;;2.03;;
15451;SDS011;7827;53.594;9.938;2022-09-17T07:52:37;9.90;;;2.05;;
15451;SDS011;7827;53.594;9.938;2022-09-17T07:55:05;10.45;;;2.17;;
15451;SDS011;7827;53.594;9.938;2022-09-17T07:57:34;10.57;;;2.03;;
15451;SDS011;7827;53.594;9.938;2022-09-17T08:00:02;9.50;;;2.03;;
15451;SDS011;7827;53.594;9.938;2022-09-17T08:02:36;7.72;;;1.80;;
15451;SDS011;7827;53.594;9.938;2022-09-17T08:05:05;7.15;;;2.17;;
15451;SDS011;7827;53.594;9.938;2022-09-17T08:07:35;6.78;;;1.73;;
15451;SDS011;7827;53.594;9.938;2022-09-17T08:10:04;12.63;;;2.90;;
15451;SDS011;7827;53.594;9.938;2022-09-17T08:12:32;13.18;;;2.30;;
15451;SDS011;7827;53.594;9.938;2022-09-17T08:15:01;10.30;;;2.40;;
15451;SDS011;7827;53.594;9.938;2022-09-17T08:17:29;7.65;;;2.15;;
15451;SDS011;7827;53.594;9.938;2022-09-17T08:19:57;16.00;;;3.00;;
15451;SDS011;7827;53.594;9.938;2022-09-17T08:22:25;11.25;;;2.20;;
15451;SDS011;7827;53.594;9.938;2022-09-17T08:24:55;12.02;;;2.65;;
15451;SDS011;7827;53.594;9.938;2022-09-17T08:27:23;10.30;;;3.08;;
15451;SDS011;7827;53.594;9.938;2022-09-17T08:29:51;11.32;;;2.80;;
15451;SDS011;7827;53.594;9.938;2022-09-17T08:32:20;14.27;;;3.03;;
15451;SDS011;7827;53.594;9.938;2022-09-17T08:34:48;8.20;;;2.22;;
15451;SDS011;7827;53.594;9.938;2022-09-17T08:37:16;9.93;;;2.60;;
15451;SDS011;7827;53.594;9.938;2022-09-17T08:39:44;13.48;;;2.38;;
15451;SDS011;7827;53.594;9.938;2022-09-17T08:42:15;9.93;;;1.95;;
15451;SDS011;7827;53.594;9.938;2022-09-17T08:44:53;8.85;;;2.20;;
15451;SDS011;7827;53.594;9.938;2022-09-17T08:47:27;10.80;;;2.65;;
15451;SDS011;7827;53.594;9.938;2022-09-17T08:50:02;13.70;;;2.35;;
15451;SDS011;7827;53.594;9.938;2022-09-17T08:55:41;8.10;;;2.17;;
15451;SDS011;7827;53.594;9.938;2022-09-17T08:58:21;7.93;;;1.77;;
15451;SDS011;7827;53.594;9.938;2022-09-17T09:01:31;9.98;;;1.67;;
15451;SDS011;7827;53.594;9.938;2022-09-17T09:07:20;8.25;;;1.77;;
15451;SDS011;7827;53.594;9.938;2022-09-17T09:09:55;3.88;;;1.60;;
15451;SDS011;7827;53.594;9.938;2022-09-17T09:12:34;6.13;;;1.60;;
15451;SDS011;7827;53.594;9.938;2022-09-17T09:15:06;4.55;;;1.33;;
15451;SDS011;7827;53.594;9.938;2022-09-17T09:18:00;3.30;;;1.40;;
15451;SDS011;7827;53.594;9.938;2022-09-17T09:20:44;5.20;;;1.83;;
15451;SDS011;7827;53.594;9.938;2022-09-17T09:23:19;4.70;;;1.45;;
15451;SDS011;7827;53.594;9.938;2022-09-17T09:25:55;6.82;;;1.45;;
15451;SDS011;7827;53.594;9.938;2022-09-17T09:28:49;4.20;;;1.55;;
15451;SDS011;7827;53.594;9.938;2022-09-17T09:31:36;4.93;;;1.35;;
15451;SDS011;7827;53.594;9.938;2022-09-17T09:34:21;4.88;;;1.25;;
15451;SDS011;7827;53.594;9.938;2022-09-17T09:36:52;2.65;;;1.13;;
15451;SDS011;7827;53.594;9.938;2022-09-17T09:39:36;2.13;;;1.10;;
15451;SDS011;7827;53.594;9.938;2022-09-17T09:42:13;3.65;;;1.17;;
15451;SDS011;7827;53.594;9.938;2022-09-17T09:44:49;3.00;;;1.10;;
15451;SDS011;7827;53.594;9.938;2022-09-17T09:50:30;4.68;;;1.10;;
15451;SDS011;7827;53.594;9.938;2022-09-17T09:53:31;2.65;;;0.98;;
15451;SDS011;7827;53.594;9.938;2022-09-17T09:56:23;1.20;;;1.00;;
15451;SDS011;7827;53.594;9.938;2022-09-17T09:59:14;3.72;;;1.33;;
15451;SDS011;7827;53.594;9.938;2022-09-17T10:01:42;3.35;;;1.20;;
15451;SDS011;7827;53.594;9.938;2022-09-17T10:04:16;3.38;;;1.13;;
15451;SDS011;7827;53.594;9.938;2022-09-17T10:06:48;2.88;;;1.30;;
15451;SDS011;7827;53.594;9.938;2022-09-17T10:09:19;4.28;;;1.30;;
15451;SDS011;7827;53.594;9.938;2022-09-17T10:11:58;4.63;;;1.30;;
15451;SDS011;7827;53.594;9.938;2022-09-17T10:14:44;4.25;;;1.77;;
15451;SDS011;7827;53.594;9.938;2022-09-17T10:17:17;5.88;;;1.48;;
15451;SDS011;7827;53.594;9.938;2022-09-17T10:20:11;3.05;;;1.30;;
15451;SDS011;7827;53.594;9.938;2022-09-17T10:22:48;4.57;;;1.52;;
15451;SDS011;7827;53.594;9.938;2022-09-17T10:25:22;4.93;;;1.45;;
15451;SDS011;7827;53.594;9.938;2022-09-17T10:27:56;6.00;;;1.58;;
15451;SDS011;7827;53.594;9.938;2022-09-17T10:30:28;3.95;;;1.48;;
15451;SDS011;7827;53.594;9.938;2022-09-17T10:35:55;5.13;;;1.60;;
15451;SDS011;7827;53.594;9.938;2022-09-17T10:38:27;3.13;;;1.45;;
15451;SDS011;7827;53.594;9.938;2022-09-17T10:41:06;4.25;;;1.60;;
15451;SDS011;7827;53.594;9.938;2022-09-17T10:43:42;6.25;;;1.65;;
15451;SDS011;7827;53.594;9.938;2022-09-17T10:46:13;4.70;;;1.35;;
15451;SDS011;7827;53.594;9.938;2022-09-17T10:48:55;4.78;;;1.15;;
15451;SDS011;7827;53.594;9.938;2022-09-17T10:51:37;5.03;;;1.90;;
15451;SDS011;7827;53.594;9.938;2022-09-17T10:54:07;4.32;;;1.50;;
15451;SDS011;7827;53.594;9.938;2022-09-17T10:56:59;5.07;;;1.70;;
15451;SDS011;7827;53.594;9.938;2022-09-17T10:59:38;3.30;;;1.75;;
15451;SDS011;7827;53.594;9.938;2022-09-17T11:02:45;6.15;;;1.58;;
15451;SDS011;7827;53.594;9.938;2022-09-17T11:06:00;3.42;;;1.48;;
15451;SDS011;7827;53.594;9.938;2022-09-17T11:08:47;4.40;;;1.55;;
15451;SDS011;7827;53.594;9.938;2022-09-17T11:11:33;5.35;;;1.50;;
15451;SDS011;7827;53.594;9.938;2022-09-17T11:14:17;6.55;;;1.67;;
15451;SDS011;7827;53.594;9.938;2022-09-17T11:17:07;5.57;;;1.80;;
15451;SDS011;7827;53.594;9.938;2022-09-17T11:19:55;5.05;;;1.75;;
15451;SDS011;7827;53.594;9.938;2022-09-17T11:22:30;5.38;;;1.83;;
15451;SDS011;7827;53.594;9.938;2022-09-17T11:25:22;4.75;;;1.40;;
15451;SDS011;7827;53.594;9.938;2022-09-17T11:28:08;6.78;;;2.03;;
15451;SDS011;7827;53.594;9.938;2022-09-17T11:30:53;3.92;;;1.58;;
15451;SDS011;7827;53.594;9.938;2022-09-17T11:33:45;5.40;;;2.10;;
15451;SDS011;7827;53.594;9.938;2022-09-17T11:36:36;5.95;;;1.70;;
15451;SDS011;7827;53.594;9.938;2022-09-17T11:39:16;4.78;;;1.73;;
15451;SDS011;7827;53.594;9.938;2022-09-17T11:41:51;5.95;;;1.75;;
15451;SDS011;7827;53.594;9.938;2022-09-17T11:44:25;8.32;;;2.47;;
15451;SDS011;7827;53.594;9.938;2022-09-17T11:47:00;4.82;;;1.70;;
15451;SDS011;7827;53.594;9.938;2022-09-17T11:49:36;6.40;;;1.98;;
15451;SDS011;7827;53.594;9.938;2022-09-17T11:52:12;5.38;;;1.70;;
15451;SDS011;7827;53.594;9.938;2022-09-17T11:54:48;6.72;;;2.13;;
15451;SDS011;7827;53.594;9.938;2022-09-17T11:57:24;8.55;;;2.05;;
15451;SDS011;7827;53.594;9.938;2022-09-17T11:59:59;7.82;;;2.28;;
15451;SDS011;7827;53.594;9.938;2022-09-17T12:02:43;5.10;;;1.60;;
15451;SDS011;7827;53.594;9.938;2022-09-17T12:05:20;9.55;;;2.50;;
15451;SDS011;7827;53.594;9.938;2022-09-17T12:07:58;8.13;;;2.13;;
15451;SDS011;7827;53.594;9.938;2022-09-17T12:10:41;6.03;;;2.25;;
15451;SDS011;7827;53.594;9.938;2022-09-17T12:13:19;11.02;;;2.28;;
15451;SDS011;7827;53.594;9.938;2022-09-17T12:16:03;5.57;;;1.90;;
15451;SDS011;7827;53.594;9.938;2022-09-17T12:18:45;7.03;;;2.08;;
15451;SDS011;7827;53.594;9.938;2022-09-17T12:21:22;6.72;;;2.22;;
15451;SDS011;7827;53.594;9.938;2022-09-17T12:23:58;7.60;;;1.92;;
15451;SDS011;7827;53.594;9.938;2022-09-17T12:32:14;5.80;;;2.25;;
15451;SDS011;7827;53.594;9.938;2022-09-17T12:35:13;10.15;;;2.45;;
15451;SDS011;7827;53.594;9.938;2022-09-17T12:38:30;5.70;;;2.00;;
15451;SDS011;7827;53.594;9.938;2022-09-17T12:41:31;7.95;;;2.38;;
15451;SDS011;7827;53.594;9.938;2022-09-17T12:47:35;10.55;;;2.78;;
15451;SDS011;7827;53.594;9.938;2022-09-17T12:50:26;13.70;;;2.78;;
15451;SDS011;7827;53.594;9.938;2022-09-17T12:53:12;9.45;;;2.40;;
15451;SDS011;7827;53.594;9.938;2022-09-17T12:55:54;9.65;;;2.40;;
15451;SDS011;7827;53.594;9.938;2022-09-17T12:58:36;9.05;;;2.28;;
15451;SDS011;7827;53.594;9.938;2022-09-17T13:01:24;8.07;;;2.25;;
15451;SDS011;7827;53.594;9.938;2022-09-17T13:04:04;5.93;;;2.40;;
15451;SDS011;7827;53.594;9.938;2022-09-17T13:07:16;9.70;;;2.35;;
15451;SDS011;7827;53.594;9.938;2022-09-17T13:10:19;8.30;;;2.30;;
15451;SDS011;7827;53.594;9.938;2022-09-17T13:13:11;10.82;;;3.05;;
15451;SDS011;7827;53.594;9.938;2022-09-17T13:15:59;11.27;;;3.15;;
15451;SDS011;7827;53.594;9.938;2022-09-17T13:18:45;5.63;;;2.00;;
15451;SDS011;7827;53.594;9.938;2022-09-17T13:21:45;5.20;;;1.73;;
15451;SDS011;7827;53.594;9.938;2022-09-17T13:24:20;12.05;;;2.90;;
15451;SDS011;7827;53.594;9.938;2022-09-17T13:26:52;8.85;;;2.80;;
15451;SDS011;7827;53.594;9.938;2022-09-17T13:38:20;7.22;;;2.05;;
15451;SDS011;7827;53.594;9.938;2022-09-17T13:40:50;6.15;;;2.05;;
15451;SDS011;7827;53.594;9.938;2022-09-17T13:43:41;5.63;;;2.58;;
15451;SDS011;7827;53.594;9.938;2022-09-17T13:46:19;12.63;;;3.13;;
15451;SDS011;7827;53.594;9.938;2022-09-17T13:48:52;7.30;;;2.17;;
15451;SDS011;7827;53.594;9.938;2022-09-17T13:51:42;11.70;;;2.83;;
15451;SDS011;7827;53.594;9.938;2022-09-17T13:54:20;8.35;;;2.80;;
15451;SDS011;7827;53.594;9.938;2022-09-17T13:57:03;6.50;;;2.05;;
15451;SDS011;7827;53.594;9.938;2022-09-17T13:59:37;7.88;;;2.30;;
15451;SDS011;7827;53.594;9.938;2022-09-17T14:08:10;9.30;;;2.17;;
15451;SDS011;7827;53.594;9.938;2022-09-17T14:10:58;8.00;;;2.35;;
15451;SDS011;7827;53.594;9.938;2022-09-17T14:13:43;3.65;;;1.67;;
15451;SDS011;7827;53.594;9.938;2022-09-17T14:16:25;5.35;;;1.30;;
15451;SDS011;7827;53.594;9.938;2022-09-17T14:19:19;7.53;;;2.03;;
15451;SDS011;7827;53.594;9.938;2022-09-17T14:22:00;2.72;;;1.45;;
15451;SDS011;7827;53.594;9.938;2022-09-17T14:24:44;3.22;;;1.30;;
15451;SDS011;7827;53.594;9.938;2022-09-17T14:27:20;1.88;;;1.23;;
15451;SDS011;7827;53.594;9.938;2022-09-17T14:30:11;3.35;;;1.50;;
15451;SDS011;7827;53.594;9.938;2022-09-17T14:32:47;4.63;;;1.38;;
15451;SDS011;7827;53.594;9.938;2022-09-17T14:35:28;2.47;;;1.30;;
15451;SDS011;7827;53.594;9.938;2022-09-17T14:38:02;4.45;;;1.38;;
15451;SDS011;7827;53.594;9.938;2022-09-17T14:40:41;3.38;;;1.65;;
15451;SDS011;7827;53.594;9.938;2022-09-17T14:43:16;2.00;;;1.10;;
15451;SDS011;7827;53.594;9.938;2022-09-17T14:45:54;3.40;;;1.48;;
15451;SDS011;7827;53.594;9.938;2022-09-17T14:48:27;3.60;;;1.50;;
15451;SDS011;7827;53.594;9.938;2022-09-17T14:54:16;8.15;;;3.15;;
15451;SDS011;7827;53.594;9.938;2022-09-17T14:56:57;5.70;;;1.95;;
15451;SDS011;7827;53.594;9.938;2022-09-17T14:59:31;4.82;;;1.77;;
15451;SDS011;7827;53.594;9.938;2022-09-17T15:02:19;6.68;;;2.08;;
15451;SDS011;7827;53.594;9.938;2022-09-17T15:05:14;10.98;;;2.25;;
15451;SDS011;7827;53.594;9.938;2022-09-17T15:07:51;6.93;;;2.42;;
15451;SDS011;7827;53.594;9.938;2022-09-17T15:10:44;5.88;;;2.08;;
15451;SDS011;7827;53.594;9.938;2022-09-17T15:13:16;4.97;;;2.13;;
15451;SDS011;7827;53.594;9.938;2022-09-17T15:15:51;7.20;;;2.28;;
15451;SDS011;7827;53.594;9.938;2022-09-17T15:18:30;5.32;;;1.90;;
15451;SDS011;7827;53.594;9.938;2022-09-17T15:21:05;5.07;;;1.55;;
15451;SDS011;7827;53.594;9.938;2022-09-17T15:23:50;4.38;;;1.70;;
15451;SDS011;7827;53.594;9.938;2022-09-17T15:26:25;4.22;;;1.42;;
15451;SDS011;7827;53.594;9.938;2022-09-17T15:29:00;7.60;;;1.90;;
15451;SDS011;7827;53.594;9.938;2022-09-17T15:31:33;7.82;;;1.90;;
15451;SDS011;7827;53.594;9.938;2022-09-17T15:34:02;5.95;;;2.05;;
15451;SDS011;7827;53.594;9.938;2022-09-17T15:36:30;5.00;;;1.55;;
15451;SDS011;7827;53.594;9.938;2022-09-17T15:38:59;3.55;;;1.40;;
15451;SDS011;7827;53.594;9.938;2022-09-17T15:41:58;7.30;;;1.92;;
15451;SDS011;7827;53.594;9.938;2022-09-17T15:44:26;4.50;;;1.60;;
15451;SDS011;7827;53.594;9.938;2022-09-17T15:50:17;5.07;;;1.70;;
15451;SDS011;7827;53.594;9.938;2022-09-17T15:52:48;1.98;;;1.30;;
15451;SDS011;7827;53.594;9.938;2022-09-17T15:55:29;4.38;;;1.42;;
15451;SDS011;7827;53.594;9.938;2022-09-17T15:58:03;6.15;;;1.60;;
15451;SDS011;7827;53.594;9.938;2022-09-17T16:00:48;4.90;;;1.60;;
15451;SDS011;7827;53.594;9.938;2022-09-17T16:07:00;1.27;;;1.10;;
15451;SDS011;7827;53.594;9.938;2022-09-17T16:09:56;6.97;;;1.73;;
15451;SDS011;7827;53.594;9.938;2022-09-17T16:12:25;4.25;;;1.30;;
15451;SDS011;7827;53.594;9.938;2022-09-17T16:14:55;2.53;;;1.40;;
15451;SDS011;7827;53.594;9.938;2022-09-17T16:17:27;7.38;;;1.67;;
15451;SDS011;7827;53.594;9.938;2022-09-17T16:20:13;2.13;;;1.33;;
15451;SDS011;7827;53.594;9.938;2022-09-17T16:22:45;4.38;;;1.40;;
15451;SDS011;7827;53.594;9.938;2022-09-17T16:25:14;2.25;;;1.50;;
15451;SDS011;7827;53.594;9.938;2022-09-17T16:27:45;3.58;;;1.85;;
15451;SDS011;7827;53.594;9.938;2022-09-17T16:30:18;2.88;;;1.90;;
15451;SDS011;7827;53.594;9.938;2022-09-17T16:32:48;2.88;;;1.70;;
15451;SDS011;7827;53.594;9.938;2022-09-17T16:35:20;3.50;;;2.10;;
15451;SDS011;7827;53.594;9.938;2022-09-17T16:37:51;4.43;;;2.05;;
15451;SDS011;7827;53.594;9.938;2022-09-17T16:40:22;5.05;;;1.58;;